Yorba Linda, CA

4:57 AM PST on December 06, 2016 (GMT -0800)
Imperial Hwy/YL Blvd | | Change Station

Elev 370 ft 33.89 °N, 117.82 °W | Updated 2 minutes ago

Overcast
Overcast
54.6 °F
Feels Like 54.6 °F
N
1.0
Wind Variable Wind from East
Gusts 2.0 mph

Today
High -- | Low -- °F
--% Chance of Precip.
Yesterday
High -- | Low -- °F
Precip. -- in
Pressure 29.95 in
Visibility 9.0 miles
Clouds Overcast 3800 ft
Dew Point 51 °F
Humidity 87%
Rainfall 0.00 in
Snow Depth Not available.
6:42 AM 4:42 PM
Waxing Crescent, 41% visible
METAR KFUL 061253Z 10004KT 9SM OVC038 13/10 A2995 RMK AO2 SLP142 T01280100
Pressure 29.95 in
Visibility 9.0 miles
Clouds Overcast 3800 ft
Dew Point 51 °F
Humidity 87%
Rainfall 0.00 in
Snow Depth Not available.
6:42 AM 4:42 PM
Waxing Crescent, 41% visible
METAR KFUL 061253Z 10004KT 9SM OVC038 13/10 A2995 RMK AO2 SLP142 T01280100

10-Day Weather Forecast

Almanac

Astronomy

Dec. 06, 2016 Rise Set
Actual Time
Civil Twilight
Nautical Twilight
Astronomical Twilight
Moon
Length of Visible Light
Length of Day
Tomorrow will be .
, % of the Moon is Illuminated

Today's Extremes

State Highs State Lows

Community

WunderPhotos

Upload Photos

1,955,938 photos uploaded!

WunderBlog® & News

Nearby

Air Quality

  Air Quality AQ Index Pollutant
Not available.

Snow Depth

Station Depth Elevation

Earthquake Activity

City Distance Mag. Time & Date
Minimum magnitude displayed is 2.5.

Coastal Water Temperatures

Place Temperature

Stations

Nearby Weather Stations

Station Location Temp. Windchill Dew Point Humidity Wind Precip. Elev Updated Type
                   

Watches & Warnings

There are currently no watches in effect.